Time;durP1;ratioP1;P1;durP2;ratioP2;P2;SDS_P1;SDS_P2;PMS_P1;PMS_P2;Temp;Humidity;BMP_temperature;BMP_pressure;BME280_temperature;BME280_humidity;BME280_pressure;Samples;Min_cycle;Max_cycle;Signal;HPM_P1;HPM_P2
2021/08/24 00:00:41;;;;;;;8.82;5.47;;;;;;;17.96;100.00;100140.53;5095195;28;20047;-71
2021/08/24 00:03:10;;;;;;;6.82;5.05;;;;;;;17.94;100.00;100147.91;5094765;28;20082;-71
2021/08/24 00:05:39;;;;;;;7.75;5.15;;;;;;;17.96;100.00;100140.53;5112824;28;20046;-71
2021/08/24 00:08:08;;;;;;;8.32;4.85;;;;;;;18.17;100.00;100133.13;5113241;28;20124;-69
2021/08/24 00:10:40;;;;;;;7.40;4.78;;;;;;;18.02;100.00;100130.00;5112993;28;20078;-69
2021/08/24 00:13:08;;;;;;;6.82;4.60;;;;;;;18.21;100.00;100122.91;5113340;28;20485;-69
2021/08/24 00:15:36;;;;;;;7.78;5.07;;;;;;;18.05;100.00;100123.50;5112822;28;20553;-69
2021/08/24 00:18:10;;;;;;;7.15;5.00;;;;;;;18.05;100.00;100131.59;5112976;28;20044;-69
2021/08/24 00:20:39;;;;;;;9.57;4.93;;;;;;;17.87;100.00;100127.91;5113007;28;20472;-70
2021/08/24 00:23:10;;;;;;;6.88;5.03;;;;;;;17.78;100.00;100126.91;5113163;28;20404;-69
2021/08/24 00:25:39;;;;;;;6.45;4.82;;;;;;;17.79;100.00;100123.22;5112853;28;20032;-70
2021/08/24 00:28:09;;;;;;;7.25;5.07;;;;;;;17.84;100.00;100120.91;5113026;28;20123;-69
2021/08/24 00:30:38;;;;;;;8.25;5.28;;;;;;;17.69;100.00;100117.81;5112802;28;20154;-70
2021/08/24 00:33:11;;;;;;;7.95;5.25;;;;;;;17.62;100.00;100122.03;5112794;28;20051;-70
2021/08/24 00:35:42;;;;;;;;;;;;;;;17.61;100.00;100116.78;5116118;28;20393;-69
2021/08/24 00:38:13;;;;;;;8.05;5.28;;;;;;;17.51;100.00;100124.84;5116932;28;19993;-69
2021/08/24 00:40:41;;;;;;;8.38;4.70;;;;;;;17.61;100.00;100119.47;5116327;28;20063;-70
2021/08/24 00:43:10;;;;;;;7.75;5.05;;;;;;;17.44;100.00;100124.56;5116632;28;20126;-69
2021/08/24 00:45:44;;;;;;;6.53;5.15;;;;;;;17.30;100.00;100118.72;5116214;28;20047;-69
2021/08/24 00:48:14;;;;;;;7.85;5.10;;;;;;;17.30;100.00;100122.25;5116979;28;20039;-69
2021/08/24 00:50:48;;;;;;;7.78;4.70;;;;;;;17.41;100.00;100124.84;5116573;28;20036;-69
2021/08/24 00:53:22;;;;;;;6.40;4.75;;;;;;;17.32;100.00;100124.81;5116719;28;20044;-69
2021/08/24 00:55:53;;;;;;;7.25;4.70;;;;;;;17.45;100.00;100130.78;5116591;28;20067;-70
2021/08/24 00:58:21;;;;;;;7.07;4.65;;;;;;;17.41;100.00;100118.59;5116440;28;20058;-70
2021/08/24 01:00:49;;;;;;;7.40;4.82;;;;;;;17.30;100.00;100121.41;5116626;28;20047;-69
2021/08/24 01:03:23;;;;;;;6.40;4.70;;;;;;;17.29;100.00;100122.41;5116416;28;20050;-69
2021/08/24 01:05:53;;;;;;;;;;;;;;;17.35;100.00;100124.53;5116991;28;20459;-70
2021/08/24 01:08:28;;;;;;;7.85;4.97;;;;;;;17.23;100.00;100131.03;5115829;28;19928;-71
2021/08/24 01:11:10;;;;;;;7.82;4.28;;;;;;;17.45;100.00;100123.56;5116432;28;20451;-70
2021/08/24 01:13:42;;;;;;;7.93;4.57;;;;;;;17.46;100.00;100129.78;5115968;28;20035;-69
2021/08/24 01:16:23;;;;;;;7.32;4.50;;;;;;;17.36;100.00;100127.09;5116156;28;20044;-69
2021/08/24 01:19:06;;;;;;;6.70;4.57;;;;;;;17.20;100.00;100123.22;5115922;28;20046;-69
2021/08/24 01:22:15;;;;;;;7.63;4.72;;;;;;;17.25;100.00;100113.72;5115569;28;20075;-68
2021/08/24 01:24:50;;;;;;;5.50;4.22;;;;;;;17.33;100.00;100121.13;5115562;28;20399;-68
2021/08/24 01:27:28;;;;;;;5.63;3.75;;;;;;;17.44;100.00;100129.94;5115903;28;20126;-68
2021/08/24 01:30:09;;;;;;;6.10;4.03;;;;;;;17.29;100.00;100125.94;5116178;28;20115;-68
2021/08/24 01:33:03;;;;;;;5.60;3.40;;;;;;;17.37;100.00;100128.81;5115348;28;20047;-68
2021/08/24 01:35:59;;;;;;;6.47;3.60;;;;;;;17.35;100.00;100129.91;5115316;28;20499;-70
2021/08/24 01:38:31;;;;;;;5.80;3.05;;;;;;;17.35;100.00;100124.53;5100584;28;20043;-71
2021/08/24 01:41:06;;;;;;;4.50;3.22;;;;;;;17.20;100.00;100125.94;5115738;28;20047;-72
2021/08/24 01:43:43;;;;;;;6.15;3.58;;;;;;;17.12;100.00;100122.06;5115409;28;20104;-72
2021/08/24 01:46:18;;;;;;;6.68;3.35;;;;;;;17.21;100.00;100122.25;5115390;28;20100;-70
2021/08/24 01:48:52;;;;;;;8.32;3.72;;;;;;;17.20;100.00;100125.94;5115498;28;20051;-69
2021/08/24 01:51:24;;;;;;;5.03;3.45;;;;;;;17.24;100.00;100121.94;5115496;28;20387;-69
2021/08/24 01:53:58;;;;;;;6.03;3.40;;;;;;;17.16;100.00;100110.00;5115429;28;20043;-68
2021/08/24 01:56:35;;;;;;;5.05;3.10;;;;;;;17.16;100.00;100119.94;5096583;28;20054;-68
2021/08/24 01:59:08;;;;;;;5.40;3.58;;;;;;;17.02;100.00;100118.50;5115312;28;20412;-68
2021/08/24 02:01:45;;;;;;;7.32;3.35;;;;;;;16.98;100.00;100122.44;5115132;28;20044;-68
2021/08/24 02:04:20;;;;;;;5.25;3.70;;;;;;;16.90;100.00;100116.91;5115265;28;20044;-68
2021/08/24 02:06:49;;;;;;;6.82;4.03;;;;;;;16.91;100.00;100115.91;5115120;28;20050;-68
2021/08/24 02:09:24;;;;;;;7.10;3.75;;;;;;;16.94;100.00;100115.63;5115257;28;20101;-68
2021/08/24 02:11:54;;;;;;;7.10;3.95;;;;;;;16.91;100.00;100121.28;5115212;28;20043;-68
2021/08/24 02:14:23;;;;;;;7.97;4.18;;;;;;;16.85;100.00;100116.44;5115066;28;20450;-69
2021/08/24 02:16:53;;;;;;;6.47;4.10;;;;;;;16.82;100.00;100122.09;5114879;28;20092;-69
2021/08/24 02:19:24;;;;;;;5.80;3.97;;;;;;;16.79;100.00;100114.28;5114647;28;20040;-69
2021/08/24 02:21:56;;;;;;;7.63;4.28;;;;;;;16.74;100.00;100103.91;5114970;28;20044;-69
2021/08/24 02:24:34;;;;;;;6.57;3.97;;;;;;;16.84;100.00;100103.97;5114418;28;20040;-69
2021/08/24 02:27:05;;;;;;;6.68;4.40;;;;;;;16.72;100.00;100110.44;5114690;28;20071;-69
2021/08/24 02:29:34;;;;;;;8.32;4.13;;;;;;;16.71;100.00;100098.81;5114312;28;20060;-69
2021/08/24 02:32:07;;;;;;;7.78;4.18;;;;;;;16.73;100.00;100101.38;5114589;28;20043;-69
2021/08/24 02:34:45;;;;;;;5.57;4.22;;;;;;;16.68;100.00;100098.19;5096179;28;20071;-69
2021/08/24 02:37:18;;;;;;;7.03;4.32;;;;;;;16.66;100.00;100105.53;5114685;28;20039;-69
2021/08/24 02:39:57;;;;;;;7.90;4.47;;;;;;;16.56;100.00;100109.03;5113958;28;20559;-69
2021/08/24 02:42:29;;;;;;;8.98;4.47;;;;;;;16.55;100.00;100112.72;5114341;28;20047;-75
2021/08/24 02:45:04;;;;;;;6.30;4.43;;;;;;;16.50;100.00;100109.59;5096644;28;20142;-69
2021/08/24 02:47:33;;;;;;;7.40;4.65;;;;;;;16.40;100.00;100105.97;5114008;28;20280;-69
2021/08/24 02:50:02;;;;;;;7.07;4.40;;;;;;;16.42;100.00;100095.94;5114203;28;20069;-69
2021/08/24 02:52:34;;;;;;;6.47;4.40;;;;;;;16.33;100.00;100102.13;5113757;28;20125;-69
2021/08/24 02:55:07;;;;;;;5.65;4.28;;;;;;;16.39;100.00;100106.09;5114190;28;20046;-69
2021/08/24 02:57:36;;;;;;;7.15;4.50;;;;;;;16.40;100.00;100105.97;5113295;28;20065;-69
2021/08/24 03:00:06;;;;;;;7.57;4.22;;;;;;;16.37;100.00;100106.25;5114697;28;20050;-69
2021/08/24 03:02:34;;;;;;;7.03;4.50;;;;;;;16.37;100.00;100106.25;5114098;28;20089;-70
2021/08/24 03:05:05;;;;;;;6.18;4.18;;;;;;;16.48;100.00;100103.47;5113883;28;20413;-70
2021/08/24 03:07:35;;;;;;;6.22;4.22;;;;;;;16.36;100.00;100096.47;5113830;28;20043;-70
2021/08/24 03:10:10;;;;;;;7.38;4.28;;;;;;;16.31;100.00;100104.09;5114043;28;20043;-70
2021/08/24 03:12:43;;;;;;;5.97;4.50;;;;;;;16.26;100.00;100103.63;5113515;28;20134;-70
2021/08/24 03:15:14;;;;;;;;;;;;;;;16.23;100.00;100099.38;5114282;28;20547;-69
2021/08/24 03:17:47;;;;;;;7.00;4.25;;;;;;;16.28;100.00;100097.13;5113384;28;20415;-69
2021/08/24 03:20:16;;;;;;;;;;;;;;;16.22;100.00;100105.75;5114237;28;20044;-69
2021/08/24 03:22:46;;;;;;;6.57;4.22;;;;;;;16.09;100.00;100106.91;5113528;28;19920;-69
2021/08/24 03:25:16;;;;;;;5.95;3.70;;;;;;;16.28;100.00;100102.50;5113743;28;20047;-69
2021/08/24 03:27:48;;;;;;;5.38;3.65;;;;;;;16.36;100.00;100103.69;5113354;28;20549;-70
2021/08/24 03:30:17;;;;;;;7.05;3.75;;;;;;;16.47;100.00;100104.47;5113576;28;20477;-70
2021/08/24 03:32:46;;;;;;;5.60;3.92;;;;;;;16.26;100.00;100106.31;5113256;28;20044;-70
2021/08/24 03:35:18;;;;;;;7.25;3.75;;;;;;;16.42;100.00;100114.78;5113634;28;20040;-70
2021/08/24 03:37:47;;;;;;;6.15;4.20;;;;;;;16.22;100.00;100119.19;5113335;28;20035;-69
2021/08/24 03:40:18;;;;;;;7.18;3.97;;;;;;;16.26;100.00;100117.09;5113425;28;20064;-69
2021/08/24 03:42:46;;;;;;;5.65;4.05;;;;;;;16.19;100.00;100116.75;5113113;28;20040;-69
2021/08/24 03:45:14;;;;;;;6.05;4.07;;;;;;;16.22;100.00;100118.34;5113265;28;20057;-69
2021/08/24 03:47:43;;;;;;;5.75;4.03;;;;;;;16.24;100.00;100129.81;5112992;28;20123;-69
2021/08/24 03:50:11;;;;;;;5.22;3.80;;;;;;;16.15;100.00;100123.41;5113385;28;20464;-69
2021/08/24 03:52:39;;;;;;;6.35;3.92;;;;;;;16.23;100.00;100122.75;5113020;28;20397;-69
2021/08/24 03:55:08;;;;;;;5.70;3.95;;;;;;;16.14;100.00;100131.59;5113256;28;20048;-69
2021/08/24 03:57:38;;;;;;;6.43;4.00;;;;;;;16.18;100.00;100127.66;5113080;28;20067;-70
2021/08/24 04:00:08;;;;;;;8.07;4.32;;;;;;;16.21;100.00;100146.22;5113052;28;20109;-69
2021/08/24 04:02:37;;;;;;;5.32;3.70;;;;;;;16.30;100.00;100138.22;5112932;28;20036;-70
2021/08/24 04:05:06;;;;;;;8.02;4.25;;;;;;;16.24;100.00;100144.13;5112922;28;20544;-69
2021/08/24 04:07:34;;;;;;;6.07;4.00;;;;;;;16.30;100.00;100148.13;5112670;28;20096;-70
2021/08/24 04:10:03;;;;;;;6.47;4.05;;;;;;;16.22;100.00;100147.94;5116879;28;20070;-69
2021/08/24 04:12:32;;;;;;;5.68;3.80;;;;;;;16.33;100.00;100147.88;5116814;28;20047;-72
2021/08/24 04:15:06;;;;;;;7.15;4.05;;;;;;;16.26;100.00;100154.75;5117593;28;20469;-71
2021/08/24 04:17:34;;;;;;;5.50;3.83;;;;;;;16.18;100.00;100149.19;5116875;28;20431;-68
2021/08/24 04:20:09;;;;;;;8.32;4.00;;;;;;;16.30;100.00;100148.97;5116836;28;20336;-70
2021/08/24 04:22:40;;;;;;;7.75;4.38;;;;;;;16.49;100.00;100158.16;5117106;28;20074;-69
2021/08/24 04:25:10;;;;;;;7.63;4.45;;;;;;;16.69;100.00;100157.31;5117212;28;20477;-70
2021/08/24 04:27:39;;;;;;;8.05;3.95;;;;;;;16.84;100.00;100152.44;5116720;28;20043;-70
2021/08/24 04:30:10;;;;;;;7.22;4.63;;;;;;;17.16;100.00;100146.91;5116760;28;20035;-70
2021/08/24 04:32:43;;;;;;;7.30;4.10;;;;;;;17.70;97.34;100148.34;5116388;28;20065;-70
2021/08/24 04:35:12;;;;;;;5.20;3.88;;;;;;;17.84;96.01;100147.91;5117181;28;20127;-70
2021/08/24 04:37:40;;;;;;;7.05;4.00;;;;;;;17.79;96.13;100149.34;5116617;28;20484;-70
2021/08/24 04:40:10;;;;;;;6.75;3.80;;;;;;;17.73;96.10;100156.97;5116811;28;20146;-70
2021/08/24 04:42:39;;;;;;;4.93;3.72;;;;;;;17.48;97.63;100154.81;5117039;28;20403;-71
2021/08/24 04:45:10;;;;;;;6.82;4.20;;;;;;;17.31;98.62;100150.06;5116552;28;20048;-70
2021/08/24 04:47:39;;;;;;;6.60;4.35;;;;;;;17.12;100.00;100146.31;5116422;28;20085;-71
2021/08/24 04:50:09;;;;;;;7.13;4.28;;;;;;;17.12;100.00;100150.88;5116193;28;20058;-71
2021/08/24 04:52:37;;;;;;;7.25;4.03;;;;;;;17.26;100.00;100152.31;5116028;28;20039;-71
2021/08/24 04:55:06;;;;;;;6.53;4.82;;;;;;;17.33;99.29;100151.63;5116535;28;20051;-71
2021/08/24 04:57:34;;;;;;;6.22;4.65;;;;;;;17.24;99.34;100155.16;5116092;28;20048;-71
2021/08/24 05:00:02;;;;;;;7.68;5.05;;;;;;;17.33;98.67;100154.31;5116103;28;20047;-70
2021/08/24 05:02:32;;;;;;;7.72;4.82;;;;;;;17.50;98.36;100152.81;5116542;28;20040;-70
2021/08/24 05:05:01;;;;;;;6.80;4.80;;;;;;;17.60;97.34;100155.53;5116340;28;20484;-70
2021/08/24 05:07:29;;;;;;;6.78;5.13;;;;;;;17.61;97.05;100158.09;5116266;28;20039;-70
2021/08/24 05:09:57;;;;;;;8.32;5.15;;;;;;;17.62;97.47;100154.38;5115866;28;20047;-71
2021/08/24 05:12:26;;;;;;;7.22;4.60;;;;;;;17.59;98.21;100154.69;5116031;28;20047;-70
2021/08/24 05:14:54;;;;;;;7.38;4.93;;;;;;;17.78;96.47;100153.88;5116152;28;20845;-70
2021/08/24 05:17:23;;;;;;;6.45;4.47;;;;;;;17.85;95.34;100164.94;5116245;28;20093;-70
2021/08/24 05:19:52;;;;;;;8.23;4.50;;;;;;;17.78;96.27;100163.81;5115319;28;20046;-71
2021/08/24 05:22:21;;;;;;;6.22;4.57;;;;;;;17.89;96.53;100172.63;5115918;28;20100;-70
2021/08/24 05:24:49;;;;;;;8.95;4.30;;;;;;;17.96;95.80;100167.53;5115574;28;20514;-71
2021/08/24 05:27:17;;;;;;;6.03;4.13;;;;;;;18.19;94.08;100162.69;5115932;28;20040;-70
2021/08/24 05:29:46;;;;;;;6.32;4.05;;;;;;;18.23;93.30;100159.53;5115810;28;20078;-71
2021/08/24 05:32:14;;;;;;;6.32;4.00;;;;;;;18.39;92.78;100168.91;5115809;28;20039;-70
2021/08/24 05:34:43;;;;;;;4.70;3.58;;;;;;;18.52;92.51;100164.06;5115821;28;20069;-71
2021/08/24 05:37:13;;;;;;;9.85;4.18;;;;;;;18.59;92.67;100163.31;5115408;28;20047;-71
2021/08/24 05:39:41;;;;;;;8.07;3.90;;;;;;;18.53;91.87;100163.09;5097726;28;20105;-71
2021/08/24 05:42:09;;;;;;;6.30;4.55;;;;;;;18.69;90.98;100176.84;5115276;28;20484;-71
2021/08/24 05:44:37;;;;;;;5.70;4.07;;;;;;;18.70;90.40;100183.09;5114966;28;20400;-71
2021/08/24 05:47:06;;;;;;;8.02;4.30;;;;;;;19.03;88.61;100184.44;5112405;28;20097;-71
2021/08/24 05:49:35;;;;;;;6.22;3.88;;;;;;;19.16;87.62;100171.41;5114980;28;20043;-70
2021/08/24 05:52:04;;;;;;;8.98;4.18;;;;;;;19.39;87.05;100175.41;5115093;28;20051;-71
2021/08/24 05:54:34;;;;;;;5.63;4.03;;;;;;;19.27;87.82;100179.34;5097296;28;20142;-70
2021/08/24 05:57:02;;;;;;;6.15;4.18;;;;;;;19.35;86.88;100168.63;5115396;28;20051;-71
2021/08/24 05:59:30;;;;;;;5.85;4.05;;;;;;;19.52;85.94;100168.81;5115209;28;20126;-74
2021/08/24 06:01:58;;;;;;;6.10;3.85;;;;;;;19.95;83.85;100174.38;5114941;28;20101;-74
2021/08/24 06:04:27;;;;;;;7.50;4.35;;;;;;;20.42;81.46;100179.53;5095893;28;20092;-75
2021/08/24 06:06:55;;;;;;;5.43;3.67;;;;;;;20.57;80.34;100179.88;5114628;28;20476;-75
2021/08/24 06:09:23;;;;;;;4.53;3.35;;;;;;;21.05;78.12;100173.91;5114771;28;20405;-75
2021/08/24 06:11:53;;;;;;;7.10;4.03;;;;;;;21.61;74.81;100172.44;5111720;28;20377;-75
2021/08/24 06:14:23;;;;;;;7.18;3.90;;;;;;;21.46;75.29;100186.81;5114625;28;20407;-75
2021/08/24 06:16:57;;;;;;;5.97;3.85;;;;;;;21.30;75.45;100184.88;5111622;28;20075;-75
2021/08/24 06:19:26;;;;;;;5.93;3.95;;;;;;;21.92;73.24;100196.28;5114990;28;20044;-75
2021/08/24 06:21:55;;;;;;;5.35;3.47;;;;;;;21.89;72.41;100191.19;5114537;28;20035;-75
2021/08/24 06:24:24;;;;;;;6.72;3.30;;;;;;;22.12;71.62;100197.72;5114896;28;20105;-75
2021/08/24 06:26:53;;;;;;;4.88;3.40;;;;;;;21.70;73.46;100185.03;5114643;28;20036;-73
2021/08/24 06:29:21;;;;;;;6.10;3.60;;;;;;;22.23;71.02;100180.22;5114790;28;20100;-71
2021/08/24 06:31:52;;;;;;;6.03;3.30;;;;;;;22.77;69.48;100186.81;5114489;28;20043;-71
2021/08/24 06:34:22;;;;;;;6.22;3.30;;;;;;;22.97;68.85;100186.44;5096700;28;20051;-72
2021/08/24 06:36:51;;;;;;;5.78;3.40;;;;;;;23.43;66.41;100188.34;5113435;28;20052;-71
2021/08/24 06:39:24;;;;;;;6.20;3.20;;;;;;;22.99;67.80;100189.88;5114651;28;20063;-71
2021/08/24 06:41:53;;;;;;;5.03;3.38;;;;;;;23.13;66.32;100197.31;5114007;28;20381;-72
2021/08/24 06:44:22;;;;;;;6.18;3.30;;;;;;;23.35;66.75;100184.81;5114254;28;20552;-71
2021/08/24 06:46:50;;;;;;;5.03;3.20;;;;;;;23.28;66.81;100183.84;5114429;28;20051;-70
2021/08/24 06:49:18;;;;;;;5.72;3.28;;;;;;;22.72;68.43;100191.94;5115266;28;20044;-71
2021/08/24 06:51:46;;;;;;;6.55;3.30;;;;;;;21.90;72.25;100187.44;5117495;28;20067;-70
2021/08/24 06:54:15;;;;;;;5.43;3.50;;;;;;;21.98;73.04;100184.75;5114070;28;20043;-71
2021/08/24 06:56:43;;;;;;;6.22;3.08;;;;;;;21.99;72.58;100198.16;5114199;28;20048;-73
2021/08/24 06:59:13;;;;;;;6.57;3.70;;;;;;;21.89;73.61;100197.44;5114088;28;20514;-71
2021/08/24 07:01:42;;;;;;;6.75;3.70;;;;;;;21.86;72.87;100186.94;5113753;28;20044;-75
2021/08/24 07:04:10;;;;;;;7.20;3.80;;;;;;;21.12;76.60;100188.50;5114217;28;20050;-69
2021/08/24 07:06:39;;;;;;;5.85;3.60;;;;;;;20.92;77.08;100191.59;5113919;28;20050;-70
2021/08/24 07:09:08;;;;;;;6.00;3.50;;;;;;;20.54;79.09;100194.56;5113525;28;20394;-70
2021/08/24 07:11:38;;;;;;;6.15;3.90;;;;;;;20.63;78.39;100205.47;5113900;28;20040;-69
2021/08/24 07:14:07;;;;;;;5.10;3.72;;;;;;;20.53;78.69;100198.28;5113800;28;20477;-69
2021/08/24 07:16:36;;;;;;;6.20;3.88;;;;;;;20.58;78.78;100206.78;5095796;28;20077;-71
2021/08/24 07:19:04;;;;;;;5.53;3.58;;;;;;;20.40;79.85;100202.38;5095243;28;20545;-72
2021/08/24 07:21:32;;;;;;;7.97;3.90;;;;;;;20.32;81.30;100200.44;5113573;28;20082;-69
2021/08/24 07:24:01;;;;;;;6.18;3.90;;;;;;;20.21;82.25;100198.84;5113502;28;20054;-71
2021/08/24 07:26:29;;;;;;;7.00;4.00;;;;;;;20.39;81.38;100204.25;5113933;28;20046;-70
2021/08/24 07:28:57;;;;;;;7.18;4.00;;;;;;;20.46;80.89;100212.59;5113556;28;20455;-71
2021/08/24 07:31:27;;;;;;;8.40;4.68;;;;;;;20.62;79.67;100206.47;5113627;28;20118;-70
2021/08/24 07:33:57;;;;;;;6.50;3.80;;;;;;;20.57;79.76;100206.97;5113314;28;20464;-69
2021/08/24 07:36:25;;;;;;;5.93;3.95;;;;;;;20.51;81.11;100211.13;5114137;28;20118;-70
2021/08/24 07:38:53;;;;;;;5.47;4.10;;;;;;;20.59;78.69;100213.06;5113269;28;20108;-70
2021/08/24 07:41:23;;;;;;;5.75;3.85;;;;;;;20.47;78.92;100209.75;5113471;28;20113;-70
2021/08/24 07:43:51;;;;;;;5.60;4.00;;;;;;;20.54;80.17;100202.69;5112838;28;20046;-70
2021/08/24 07:46:20;;;;;;;7.03;3.80;;;;;;;20.66;79.75;100208.72;5113380;28;20046;-70
2021/08/24 07:48:48;;;;;;;5.63;3.72;;;;;;;20.70;79.81;100214.66;5113228;28;20074;-71
2021/08/24 07:51:20;;;;;;;6.18;3.88;;;;;;;20.86;80.67;100204.78;5113467;28;20108;-69
2021/08/24 07:53:49;;;;;;;6.70;3.67;;;;;;;20.95;79.90;100223.84;5113088;28;20047;-71
2021/08/24 07:56:18;;;;;;;5.32;3.58;;;;;;;20.71;78.89;100219.06;5113270;28;20044;-70
2021/08/24 07:58:46;;;;;;;5.40;3.80;;;;;;;20.81;80.98;100227.97;5112914;28;20046;-71
2021/08/24 08:01:15;;;;;;;5.32;3.80;;;;;;;20.92;78.28;100216.00;5113091;28;20385;-70
2021/08/24 08:03:43;;;;;;;6.35;4.00;;;;;;;20.92;79.15;100219.56;5113282;28;20043;-70
2021/08/24 08:06:11;;;;;;;6.32;4.10;;;;;;;21.04;80.25;100212.88;5113301;28;20437;-70
2021/08/24 08:08:41;;;;;;;6.55;3.53;;;;;;;21.15;75.58;100220.72;5113279;28;20535;-70
2021/08/24 08:11:09;;;;;;;5.28;3.75;;;;;;;21.27;76.73;100223.19;5112939;28;20043;-70
2021/08/24 08:13:39;;;;;;;5.97;3.85;;;;;;;21.28;76.45;100231.16;5113444;28;20039;-70
2021/08/24 08:16:08;;;;;;;6.10;3.30;;;;;;;21.24;76.73;100228.91;5113083;28;20036;-70
2021/08/24 08:18:36;;;;;;;7.07;3.63;;;;;;;20.86;77.63;100228.34;5113060;28;20043;-70
2021/08/24 08:21:04;;;;;;;7.07;3.78;;;;;;;20.89;78.61;100229.88;5113106;28;20419;-70
2021/08/24 08:23:33;;;;;;;5.05;3.63;;;;;;;20.86;77.81;100239.19;5112970;28;20056;-70
2021/08/24 08:26:02;;;;;;;5.72;3.97;;;;;;;20.79;79.30;100229.97;5112876;28;20457;-70
2021/08/24 08:28:30;;;;;;;4.70;3.47;;;;;;;20.95;78.51;100230.09;5113099;28;20047;-70
2021/08/24 08:31:01;;;;;;;7.18;3.80;;;;;;;20.90;76.79;100237.00;5113097;28;20044;-70
2021/08/24 08:33:29;;;;;;;6.35;3.65;;;;;;;21.14;77.86;100232.59;5113452;28;20073;-70
2021/08/24 08:35:58;;;;;;;5.60;4.13;;;;;;;21.02;77.08;100231.16;5112578;28;20122;-70
2021/08/24 08:38:26;;;;;;;6.07;4.10;;;;;;;21.21;78.11;100229.22;5112870;28;20054;-71
2021/08/24 08:40:57;;;;;;;5.15;3.60;;;;;;;21.31;76.39;100230.81;5112734;28;20138;-71
2021/08/24 08:43:38;;;;;;;5.38;3.70;;;;;;;21.25;76.66;100241.47;5112969;28;20051;-70
2021/08/24 08:46:16;;;;;;;5.68;3.70;;;;;;;21.30;76.43;100231.00;5094697;28;20044;-70
2021/08/24 08:48:54;;;;;;;5.38;3.47;;;;;;;21.29;75.20;100238.28;5112798;28;20476;-70
2021/08/24 08:51:41;;;;;;;5.15;3.50;;;;;;;21.40;77.04;100229.00;5113217;28;20070;-70
2021/08/24 08:54:19;;;;;;;6.03;3.95;;;;;;;21.34;76.72;100235.09;5112649;28;20116;-70
2021/08/24 08:56:53;;;;;;;5.10;3.40;;;;;;;21.19;76.27;100239.38;5115900;28;20044;-70
2021/08/24 08:59:28;;;;;;;5.47;3.65;;;;;;;21.21;77.25;100234.66;5116498;28;20043;-70
2021/08/24 09:02:03;;;;;;;6.68;3.97;;;;;;;21.25;75.78;100236.88;5116250;28;20044;-71
2021/08/24 09:04:36;;;;;;;5.25;3.92;;;;;;;21.11;76.42;100240.19;5116464;28;20043;-70
2021/08/24 09:07:10;;;;;;;;;;;;;;;21.14;76.21;100240.72;5116492;28;20096;-70
2021/08/24 09:09:39;;;;;;;6.78;3.40;;;;;;;21.15;76.24;100247.84;5116734;28;19959;-70
2021/08/24 09:12:10;;;;;;;5.65;3.60;;;;;;;21.46;76.42;100241.09;5116011;28;20106;-70
2021/08/24 09:14:45;;;;;;;5.63;3.75;;;;;;;21.43;75.82;100245.00;5116268;28;20058;-70
2021/08/24 09:17:24;;;;;;;5.13;3.22;;;;;;;21.44;75.64;100235.84;5115863;28;20450;-70
2021/08/24 09:19:57;;;;;;;5.13;3.50;;;;;;;21.56;75.06;100242.66;5115960;28;20397;-71
2021/08/24 09:22:25;;;;;;;5.07;3.00;;;;;;;21.84;74.02;100231.56;5116355;28;20047;-70
2021/08/24 09:24:54;;;;;;;7.00;3.20;;;;;;;22.04;72.75;100232.97;5115791;28;20039;-70
2021/08/24 09:27:36;;;;;;;4.18;2.53;;;;;;;22.15;70.72;100224.53;5116260;28;20043;-70
2021/08/24 09:30:07;;;;;;;4.82;2.90;;;;;;;22.21;71.08;100229.31;5097475;28;20436;-70
2021/08/24 09:32:37;;;;;;;5.13;2.92;;;;;;;22.24;71.06;100226.25;5097970;28;20066;-69
2021/08/24 09:35:27;;;;;;;3.78;2.30;;;;;;;22.06;71.13;100230.09;5115618;28;20043;-71
2021/08/24 09:37:58;;;;;;;3.53;2.30;;;;;;;22.26;70.43;100231.50;5115456;28;20114;-71
2021/08/24 09:40:43;;;;;;;3.35;2.30;;;;;;;22.39;69.20;100225.56;5115280;28;20419;-70
2021/08/24 09:43:26;;;;;;;4.47;2.28;;;;;;;22.41;67.76;100229.84;5115520;28;20046;-71
2021/08/24 09:46:01;;;;;;;4.30;2.40;;;;;;;22.32;66.91;100232.72;5115496;28;20039;-71
2021/08/24 09:48:31;;;;;;;3.20;1.83;;;;;;;22.41;66.98;100234.41;5115550;28;20449;-71
2021/08/24 09:51:19;;;;;;;2.92;1.95;;;;;;;22.46;67.01;100232.03;5115426;28;20089;-71
2021/08/24 09:53:55;;;;;;;4.47;2.20;;;;;;;22.38;65.90;100229.28;5115752;28;20067;-71
2021/08/24 09:56:27;;;;;;;4.45;2.38;;;;;;;22.67;66.61;100228.78;5115619;28;20476;-70
2021/08/24 09:58:55;;;;;;;3.10;2.20;;;;;;;22.64;66.24;100224.56;5115393;28;20039;-71
2021/08/24 10:01:25;;;;;;;4.93;2.20;;;;;;;22.64;66.36;100223.72;5115511;28;20457;-70
2021/08/24 10:04:06;;;;;;;4.22;2.40;;;;;;;22.76;65.82;100222.31;5096526;28;20052;-72
2021/08/24 10:06:36;;;;;;;3.70;2.33;;;;;;;22.87;66.15;100223.88;5114922;28;20127;-71
2021/08/24 10:09:16;;;;;;;3.30;1.90;;;;;;;23.05;63.67;100216.34;5115142;28;20051;-71
2021/08/24 10:11:45;;;;;;;3.15;1.98;;;;;;;23.13;62.33;100221.78;5115046;28;20035;-71
2021/08/24 10:14:22;;;;;;;3.78;2.08;;;;;;;23.00;64.07;100216.06;5114791;28;20478;-71
2021/08/24 10:16:56;;;;;;;3.33;2.33;;;;;;;23.00;64.07;100218.78;5115166;28;20070;-70
2021/08/24 10:19:29;;;;;;;3.72;2.17;;;;;;;23.24;64.55;100221.41;5114422;28;20043;-70
2021/08/24 10:22:02;;;;;;;3.67;2.17;;;;;;;23.28;64.19;100211.03;5114639;28;20040;-71
2021/08/24 10:24:33;;;;;;;6.72;2.33;;;;;;;23.08;62.59;100218.75;5114833;28;20067;-71
2021/08/24 10:27:05;;;;;;;3.45;2.00;;;;;;;23.22;62.67;100218.03;5114724;28;20097;-71
2021/08/24 10:29:39;;;;;;;3.03;1.70;;;;;;;23.07;60.40;100215.19;5114891;28;20035;-71
2021/08/24 10:32:12;;;;;;;3.10;1.80;;;;;;;22.83;60.20;100218.75;5114750;28;20612;-71
2021/08/24 10:34:42;;;;;;;5.15;1.67;;;;;;;22.85;60.08;100203.13;5114639;28;20039;-71
2021/08/24 10:37:41;;;;;;;2.63;1.70;;;;;;;22.78;62.29;100210.28;5114297;28;20051;-71
2021/08/24 10:40:29;;;;;;;3.08;1.80;;;;;;;22.63;61.65;100208.41;5066930;28;20366;-71
2021/08/24 10:43:04;;;;;;;3.05;2.20;;;;;;;22.67;62.89;100202.44;5114392;28;20047;-72
2021/08/24 10:45:35;;;;;;;3.08;1.65;;;;;;;22.68;62.18;100197.88;5114354;28;20097;-71
2021/08/24 10:48:09;;;;;;;3.85;2.03;;;;;;;22.67;60.41;100207.88;5114086;28;20047;-71
2021/08/24 10:50:43;;;;;;;2.15;1.58;;;;;;;22.79;59.51;100203.81;5114486;28;20089;-70
2021/08/24 10:53:23;;;;;;;2.90;1.85;;;;;;;22.89;61.58;100200.09;5114021;28;20043;-70
2021/08/24 10:55:58;;;;;;;2.67;1.85;;;;;;;22.83;61.71;100201.59;5114133;28;20074;-70
2021/08/24 10:58:34;;;;;;;5.40;2.00;;;;;;;22.93;62.14;100202.28;5114369;28;20541;-70
2021/08/24 11:01:04;;;;;;;3.42;1.60;;;;;;;22.95;58.82;100199.38;5113848;28;20039;-71
2021/08/24 11:04:16;;;;;;;3.95;1.90;;;;;;;22.99;61.00;100207.03;5113905;28;20039;-70
2021/08/24 11:06:54;;;;;;;3.00;1.98;;;;;;;23.08;60.62;100195.13;5113934;28;20445;-70
2021/08/24 11:09:34;;;;;;;5.43;1.83;;;;;;;23.12;61.18;100199.19;5114183;28;20065;-71
2021/08/24 11:12:13;;;;;;;2.67;1.70;;;;;;;23.04;60.05;100201.06;5095746;28;20047;-71
2021/08/24 11:14:53;;;;;;;3.05;1.60;;;;;;;23.00;59.05;100194.28;5113788;28;20446;-70
2021/08/24 11:17:32;;;;;;;3.58;1.60;;;;;;;22.91;60.90;100200.78;5113558;28;20097;-70
2021/08/24 11:20:11;;;;;;;2.72;1.70;;;;;;;22.76;61.50;100201.41;5113219;28;20051;-71
2021/08/24 11:22:43;;;;;;;4.05;1.60;;;;;;;22.82;61.00;100206.19;5095542;28;20047;-70
2021/08/24 11:25:23;;;;;;;2.88;1.60;;;;;;;22.71;59.68;100202.97;5113501;28;20040;-71
2021/08/24 11:27:58;;;;;;;3.72;1.75;;;;;;;22.91;57.44;100198.91;5113641;28;20040;-70
2021/08/24 11:30:32;;;;;;;2.08;1.35;;;;;;;23.18;56.45;100211.25;5113665;28;20043;-71
2021/08/24 11:33:05;;;;;;;3.88;1.40;;;;;;;23.16;55.67;100202.38;5113451;28;20475;-70
2021/08/24 11:35:40;;;;;;;;;;;;;;;23.10;57.64;100197.66;5114094;28;20369;-70
2021/08/24 11:38:15;;;;;;;2.53;1.42;;;;;;;22.92;58.68;100205.19;5113489;28;20018;-71
2021/08/24 11:40:52;;;;;;;2.60;1.60;;;;;;;22.91;59.37;100203.50;5113459;28;20055;-70
2021/08/24 11:43:27;;;;;;;3.17;1.48;;;;;;;22.83;58.61;100198.88;5113124;28;20051;-71
2021/08/24 11:45:59;;;;;;;2.60;1.50;;;;;;;22.69;58.46;100205.88;5095229;28;20059;-70